Time;durP1;ratioP1;P1;durP2;ratioP2;P2;SDS_P1;SDS_P2;PMS_P1;PMS_P2;Temp;Humidity;BMP_temperature;BMP_pressure;BME280_temperature;BME280_humidity;BME280_pressure;Samples;Min_cycle;Max_cycle;Signal;HPM_P1;HPM_P2
2023/01/07 00:01:27;;;;;;;;;;;19.90;55.60;;;;;;5077740;28;43413;-63
2023/01/07 00:03:55;;;;;;;;;;;19.90;55.70;;;;;;5080820;27;43513;-62
2023/01/07 00:06:23;;;;;;;;;;;19.90;55.70;;;;;;5080234;27;44032;-62
2023/01/07 00:08:52;;;;;;;;;;;19.90;55.70;;;;;;5076639;28;43372;-62
2023/01/07 00:11:20;;;;;;;;;;;19.90;55.70;;;;;;5078388;28;43487;-62
2023/01/07 00:13:48;;;;;;;;;;;19.90;55.70;;;;;;5079246;28;43468;-62
2023/01/07 00:16:18;;;;;;;;;;;19.90;55.70;;;;;;5080119;28;43782;-62
2023/01/07 00:18:46;;;;;;;;;;;19.90;55.70;;;;;;5076126;27;43431;-62
2023/01/07 00:21:15;;;;;;;;;;;19.90;55.70;;;;;;5078578;28;43496;-62
2023/01/07 00:23:43;;;;;;;;;;;19.90;55.80;;;;;;5079874;28;43529;-62
2023/01/07 00:26:12;;;;;;;;;;;19.90;55.80;;;;;;5080307;27;45020;-62
2023/01/07 00:28:40;;;;;;;;;;;19.90;55.80;;;;;;5075038;28;43501;-62
2023/01/07 00:31:10;;;;;;;;;;;19.90;55.80;;;;;;5079493;28;43535;-62
2023/01/07 00:33:47;;;;;;;;;;;19.90;55.80;;;;;;5082363;28;43427;-63
2023/01/07 00:36:14;;;;;;;;;;;19.90;55.80;;;;;;5077789;28;43872;-62
2023/01/07 00:38:42;;;;;;;;;;;19.90;55.80;;;;;;5079356;28;43441;-62
2023/01/07 00:41:09;;;;;;;;;;;19.90;55.80;;;;;;5080000;28;43521;-62
2023/01/07 00:43:37;;;;;;;;;;;19.90;55.80;;;;;;5079005;28;43573;-62
2023/01/07 00:46:04;;;;;;;;;;;19.90;55.80;;;;;;5077875;28;43949;-63
2023/01/07 00:48:31;;;;;;;;;;;19.90;55.80;;;;;;5076989;28;43519;-62
2023/01/07 00:50:59;;;;;;;;;;;19.90;55.80;;;;;;5078550;28;43485;-62
2023/01/07 00:53:29;;;;;;;;;;;19.80;55.80;;;;;;5079266;28;43444;-62
2023/01/07 00:55:56;;;;;;;;;;;19.80;55.80;;;;;;5081287;28;44034;-62
2023/01/07 00:58:24;;;;;;;;;;;19.80;55.90;;;;;;5077071;28;44056;-62
2023/01/07 01:00:56;;;;;;;;;;;19.80;55.80;;;;;;5077577;27;43390;-62
2023/01/07 01:03:24;;;;;;;;;;;19.80;55.80;;;;;;5076585;28;43429;-62
2023/01/07 01:05:52;;;;;;;;;;;19.80;55.90;;;;;;5076781;28;43848;-62
2023/01/07 01:08:20;;;;;;;;;;;19.80;55.90;;;;;;5078148;28;43793;-62
2023/01/07 01:10:47;;;;;;;;;;;19.90;55.90;;;;;;5077845;28;43515;-62
2023/01/07 01:13:16;;;;;;;;;;;19.90;55.90;;;;;;5078503;28;43494;-62
2023/01/07 01:15:45;;;;;;;;;;;19.80;55.90;;;;;;5075253;28;44036;-63
2023/01/07 01:18:12;;;;;;;;;;;19.80;55.90;;;;;;5080434;28;43569;-62
2023/01/07 01:20:40;;;;;;;;;;;19.80;55.90;;;;;;5078638;28;43522;-62
2023/01/07 01:23:07;;;;;;;;;;;19.80;55.90;;;;;;5074293;28;43419;-63
2023/01/07 01:25:34;;;;;;;;;;;19.80;55.90;;;;;;5084987;27;44061;-62
2023/01/07 01:28:02;;;;;;;;;;;19.80;56.00;;;;;;5077684;28;43509;-62
2023/01/07 01:30:29;;;;;;;;;;;19.80;55.90;;;;;;5072591;28;43452;-62
2023/01/07 01:32:58;;;;;;;;;;;19.80;56.00;;;;;;5078073;28;43493;-62
2023/01/07 01:35:26;;;;;;;;;;;19.80;56.00;;;;;;5081190;28;44289;-62
2023/01/07 01:37:54;;;;;;;;;;;19.80;56.00;;;;;;5077166;28;43530;-63
2023/01/07 01:40:26;;;;;;;;;;;19.80;56.00;;;;;;5077879;28;44002;-62
2023/01/07 01:42:54;;;;;;;;;;;19.80;56.00;;;;;;5077607;28;43445;-62
2023/01/07 01:45:21;;;;;;;;;;;19.80;56.00;;;;;;5077423;28;44947;-62
2023/01/07 01:47:55;;;;;;;;;;;19.80;56.00;;;;;;5078634;28;43417;-62
2023/01/07 01:50:24;;;;;;;;;;;19.80;56.00;;;;;;5082461;27;43418;-62
2023/01/07 01:52:59;;;;;;;;;;;19.80;56.10;;;;;;5077278;28;43607;-63
2023/01/07 01:55:32;;;;;;;;;;;19.80;56.20;;;;;;5074904;28;44135;-62
2023/01/07 01:58:02;;;;;;;;;;;19.70;56.20;;;;;;5082341;27;43404;-63
2023/01/07 02:00:30;;;;;;;;;;;19.70;56.20;;;;;;5072550;28;43461;-62
2023/01/07 02:02:58;;;;;;;;;;;19.70;56.10;;;;;;5077477;28;43464;-62
2023/01/07 02:05:28;;;;;;;;;;;19.80;56.20;;;;;;5080237;28;44895;-63
2023/01/07 02:07:56;;;;;;;;;;;19.70;56.10;;;;;;5077141;28;43788;-62
2023/01/07 02:10:25;;;;;;;;;;;19.70;56.20;;;;;;5072809;28;43409;-62
2023/01/07 02:13:12;;;;;;;;;;;19.80;56.20;;;;;;5077517;28;43415;-62
2023/01/07 02:15:59;;;;;;;;;;;19.70;56.20;;;;;;5066911;28;44795;-62
2023/01/07 02:18:37;;;;;;;;;;;19.70;56.20;;;;;;5040878;28;43549;-62
2023/01/07 02:21:05;;;;;;;;;;;19.70;56.30;;;;;;5079848;28;43412;-62
2023/01/07 02:23:51;;;;;;;;;;;19.70;56.30;;;;;;5081909;27;43521;-62
2023/01/07 02:26:18;;;;;;;;;;;19.70;56.20;;;;;;5075044;28;44984;-62
2023/01/07 02:28:48;;;;;;;;;;;19.70;56.30;;;;;;5074166;28;43510;-62
2023/01/07 02:31:27;;;;;;;;;;;19.70;56.30;;;;;;5076000;28;43574;-62
2023/01/07 02:34:09;;;;;;;;;;;19.70;56.30;;;;;;5072776;28;43450;-63
2023/01/07 02:36:59;;;;;;;;;;;19.70;56.30;;;;;;5089734;27;43983;-62
2023/01/07 02:39:37;;;;;;;;;;;19.70;56.30;;;;;;5069650;28;45077;-62
2023/01/07 02:42:24;;;;;;;;;;;19.70;56.30;;;;;;5072927;28;43494;-62
2023/01/07 02:45:01;;;;;;;;;;;19.70;56.30;;;;;;5081114;28;43528;-62
2023/01/07 02:47:32;;;;;;;;;;;19.60;56.30;;;;;;5081753;28;44735;-62
2023/01/07 02:50:00;;;;;;;;;;;19.60;56.30;;;;;;5076881;28;43751;-62
2023/01/07 02:52:30;;;;;;;;;;;19.60;56.40;;;;;;5058814;28;43443;-62
2023/01/07 02:55:03;;;;;;;;;;;19.60;56.40;;;;;;5077836;27;43567;-62
2023/01/07 02:57:33;;;;;;;;;;;19.60;56.40;;;;;;5080775;27;44967;-62
2023/01/07 03:00:02;;;;;;;;;;;19.70;56.40;;;;;;5076705;28;44124;-62
2023/01/07 03:02:38;;;;;;;;;;;19.60;56.40;;;;;;5073448;28;43422;-62
2023/01/07 03:05:11;;;;;;;;;;;19.60;56.40;;;;;;5074555;28;43461;-63
2023/01/07 03:07:50;;;;;;;;;;;19.60;56.40;;;;;;5076104;28;43770;-62
2023/01/07 03:10:22;;;;;;;;;;;19.60;56.50;;;;;;5075661;28;43787;-62
2023/01/07 03:12:50;;;;;;;;;;;19.60;56.50;;;;;;5077753;28;43369;-62
2023/01/07 03:15:23;;;;;;;;;;;19.60;56.40;;;;;;5077281;28;43447;-62
2023/01/07 03:17:58;;;;;;;;;;;19.60;56.40;;;;;;5073087;28;43765;-62
2023/01/07 03:20:27;;;;;;;;;;;19.60;56.40;;;;;;5077013;28;43805;-62
2023/01/07 03:22:55;;;;;;;;;;;19.60;56.40;;;;;;5081338;27;43391;-62
2023/01/07 03:25:23;;;;;;;;;;;19.60;56.50;;;;;;5079489;28;43531;-62
2023/01/07 03:27:51;;;;;;;;;;;19.60;56.40;;;;;;5078447;28;44035;-63
2023/01/07 03:30:21;;;;;;;;;;;19.60;56.40;;;;;;5084376;27;43466;-62
2023/01/07 03:32:56;;;;;;;;;;;19.60;56.40;;;;;;5073885;28;43468;-62
2023/01/07 03:35:24;;;;;;;;;;;19.60;56.40;;;;;;5079991;28;43477;-62
2023/01/07 03:37:52;;;;;;;;;;;19.60;56.50;;;;;;5079338;28;43758;-62
2023/01/07 03:40:19;;;;;;;;;;;19.60;56.50;;;;;;5080146;28;43452;-63
2023/01/07 03:42:48;;;;;;;;;;;19.60;56.50;;;;;;5074581;28;43470;-62
2023/01/07 03:45:24;;;;;;;;;;;19.60;56.60;;;;;;5075259;28;43462;-62
2023/01/07 03:47:55;;;;;;;;;;;19.60;56.50;;;;;;5079957;28;44942;-62
2023/01/07 03:50:25;;;;;;;;;;;19.60;56.50;;;;;;5072784;28;43471;-62
2023/01/07 03:52:53;;;;;;;;;;;19.60;56.50;;;;;;5080882;28;43381;-62
2023/01/07 03:55:22;;;;;;;;;;;19.60;56.50;;;;;;5078914;28;43514;-63
2023/01/07 03:57:52;;;;;;;;;;;19.60;56.60;;;;;;5084073;27;44825;-62
2023/01/07 04:00:20;;;;;;;;;;;19.60;56.60;;;;;;5077840;28;43908;-62
2023/01/07 04:02:54;;;;;;;;;;;19.60;56.50;;;;;;5080000;28;43483;-62
2023/01/07 04:05:26;;;;;;;;;;;19.60;56.60;;;;;;5078330;28;43578;-63
2023/01/07 04:07:53;;;;;;;;;;;19.60;56.60;;;;;;5079133;28;44982;-62
2023/01/07 04:10:23;;;;;;;;;;;19.50;56.60;;;;;;5075785;28;43794;-62
2023/01/07 04:12:51;;;;;;;;;;;19.60;56.60;;;;;;5077976;28;43479;-62
2023/01/07 04:15:19;;;;;;;;;;;19.60;56.60;;;;;;5078868;28;43532;-62
2023/01/07 04:17:46;;;;;;;;;;;19.50;56.60;;;;;;5070590;28;43864;-62
2023/01/07 04:20:14;;;;;;;;;;;19.50;56.60;;;;;;5082104;28;43783;-62
2023/01/07 04:22:42;;;;;;;;;;;19.50;56.60;;;;;;5076100;28;43474;-62
2023/01/07 04:25:09;;;;;;;;;;;19.60;56.60;;;;;;5079722;28;43636;-62
2023/01/07 04:27:37;;;;;;;;;;;19.50;56.50;;;;;;5070717;28;44348;-62
2023/01/07 04:30:05;;;;;;;;;;;19.50;56.60;;;;;;5075599;28;43387;-62
2023/01/07 04:32:33;;;;;;;;;;;19.50;56.60;;;;;;5075854;28;43526;-62
2023/01/07 04:35:01;;;;;;;;;;;19.50;56.60;;;;;;5077780;27;43458;-62
2023/01/07 04:37:29;;;;;;;;;;;19.50;56.60;;;;;;5079147;28;44973;-62
2023/01/07 04:39:57;;;;;;;;;;;19.50;56.70;;;;;;5081561;28;43475;-62
2023/01/07 04:42:25;;;;;;;;;;;19.50;56.70;;;;;;5074088;28;43493;-62
2023/01/07 04:44:53;;;;;;;;;;;19.50;56.70;;;;;;5078388;28;43506;-63
2023/01/07 04:47:21;;;;;;;;;;;19.50;56.70;;;;;;5079373;28;44971;-62
2023/01/07 04:49:49;;;;;;;;;;;19.50;56.80;;;;;;5077554;28;43791;-62
2023/01/07 04:52:17;;;;;;;;;;;19.50;56.70;;;;;;5078973;28;43378;-62
2023/01/07 04:54:45;;;;;;;;;;;19.50;56.70;;;;;;5082324;28;43691;-62
2023/01/07 04:57:12;;;;;;;;;;;19.50;56.70;;;;;;5082154;28;43887;-62
2023/01/07 04:59:40;;;;;;;;;;;19.50;56.70;;;;;;5082088;28;43496;-62
2023/01/07 05:02:07;;;;;;;;;;;19.50;56.70;;;;;;5077029;28;43399;-62
2023/01/07 05:04:35;;;;;;;;;;;19.50;56.70;;;;;;5079128;28;43628;-62
2023/01/07 05:07:03;;;;;;;;;;;19.40;56.60;;;;;;5070656;28;44284;-62
2023/01/07 05:09:30;;;;;;;;;;;19.50;56.70;;;;;;5078932;28;43647;-62
2023/01/07 05:12:00;;;;;;;;;;;19.50;56.70;;;;;;5077606;28;43513;-62
2023/01/07 05:14:28;;;;;;;;;;;19.40;56.70;;;;;;5079093;28;43495;-62
2023/01/07 05:16:56;;;;;;;;;;;19.40;56.70;;;;;;5069988;28;43797;-62
2023/01/07 05:19:26;;;;;;;;;;;19.40;56.70;;;;;;5084066;27;43927;-62
2023/01/07 05:21:54;;;;;;;;;;;19.40;56.70;;;;;;5077036;28;43439;-62
2023/01/07 05:24:21;;;;;;;;;;;19.40;56.70;;;;;;5078417;28;43479;-62
2023/01/07 05:26:50;;;;;;;;;;;19.40;56.70;;;;;;5075695;28;43937;-62
2023/01/07 05:29:18;;;;;;;;;;;19.40;56.70;;;;;;5080551;28;43755;-63
2023/01/07 05:31:47;;;;;;;;;;;19.40;56.70;;;;;;5075864;28;43395;-62
2023/01/07 05:34:15;;;;;;;;;;;19.40;56.70;;;;;;5071572;28;43552;-62
2023/01/07 05:36:43;;;;;;;;;;;19.40;56.70;;;;;;5071519;28;44051;-62
2023/01/07 05:39:11;;;;;;;;;;;19.40;56.70;;;;;;5078120;28;43603;-62
2023/01/07 05:41:39;;;;;;;;;;;19.40;56.70;;;;;;5076691;28;43448;-63
2023/01/07 05:44:07;;;;;;;;;;;19.40;56.90;;;;;;5078800;28;43524;-63
2023/01/07 05:46:34;;;;;;;;;;;19.30;56.90;;;;;;5071106;27;44670;-62
2023/01/07 05:49:02;;;;;;;;;;;19.30;57.00;;;;;;5076081;28;43495;-62
2023/01/07 05:51:29;;;;;;;;;;;19.30;57.00;;;;;;5075684;28;43479;-63
2023/01/07 05:53:56;;;;;;;;;;;19.30;57.10;;;;;;5078666;28;43449;-63
2023/01/07 05:56:24;;;;;;;;;;;19.30;57.10;;;;;;5078449;28;43779;-63
2023/01/07 05:58:51;;;;;;;;;;;19.30;57.10;;;;;;5075288;28;43389;-63
2023/01/07 06:01:19;;;;;;;;;;;19.30;57.10;;;;;;5076596;28;44049;-63
2023/01/07 06:03:46;;;;;;;;;;;19.30;57.20;;;;;;5075053;27;43447;-63
2023/01/07 06:06:13;;;;;;;;;;;19.30;57.20;;;;;;5088621;27;43892;-63
2023/01/07 06:08:41;;;;;;;;;;;19.40;57.10;;;;;;5079675;28;43884;-63
2023/01/07 06:11:08;;;;;;;;;;;19.40;57.00;;;;;;5080829;28;43514;-63
2023/01/07 06:13:36;;;;;;;;;;;19.30;57.00;;;;;;5077311;28;43416;-63
2023/01/07 06:16:04;;;;;;;;;;;19.40;56.90;;;;;;5077434;28;44796;-63
2023/01/07 06:18:32;;;;;;;;;;;19.40;56.90;;;;;;5079294;27;43423;-63
2023/01/07 06:20:59;;;;;;;;;;;19.30;56.90;;;;;;5075752;28;43539;-63
2023/01/07 06:23:27;;;;;;;;;;;19.40;56.90;;;;;;5077599;28;43995;-63
2023/01/07 06:25:54;;;;;;;;;;;19.30;56.90;;;;;;5077555;28;44687;-63
2023/01/07 06:28:22;;;;;;;;;;;19.30;56.80;;;;;;5078848;27;43434;-63
2023/01/07 06:30:49;;;;;;;;;;;19.30;56.80;;;;;;5075849;28;43490;-63
2023/01/07 06:33:16;;;;;;;;;;;19.30;56.80;;;;;;5078144;28;43553;-63
2023/01/07 06:35:44;;;;;;;;;;;19.30;56.90;;;;;;5080841;28;44042;-63
2023/01/07 06:38:12;;;;;;;;;;;19.30;56.80;;;;;;5076414;28;43792;-64
2023/01/07 06:40:39;;;;;;;;;;;19.30;56.80;;;;;;5078176;27;43489;-63
2023/01/07 06:43:07;;;;;;;;;;;19.30;56.90;;;;;;5077231;28;43427;-64
2023/01/07 06:45:34;;;;;;;;;;;19.30;57.10;;;;;;5081114;28;43795;-64
2023/01/07 06:48:01;;;;;;;;;;;19.30;56.90;;;;;;5076919;28;43477;-63
2023/01/07 06:50:29;;;;;;;;;;;19.30;56.90;;;;;;5075632;28;43442;-63
2023/01/07 06:52:56;;;;;;;;;;;19.20;56.90;;;;;;5077564;28;43533;-64
2023/01/07 06:55:23;;;;;;;;;;;19.30;56.90;;;;;;5077455;27;44648;-64
2023/01/07 06:57:51;;;;;;;;;;;19.30;56.90;;;;;;5078409;28;43400;-63
2023/01/07 07:00:18;;;;;;;;;;;19.30;56.90;;;;;;5080971;28;43437;-64
2023/01/07 07:02:45;;;;;;;;;;;19.30;56.90;;;;;;5080090;28;43446;-64
2023/01/07 07:05:13;;;;;;;;;;;19.30;57.00;;;;;;5084862;28;43794;-64
2023/01/07 07:07:40;;;;;;;;;;;19.20;56.90;;;;;;5078744;28;43461;-64
2023/01/07 07:10:08;;;;;;;;;;;19.20;57.00;;;;;;5081759;28;44462;-63
2023/01/07 07:12:36;;;;;;;;;;;19.20;57.00;;;;;;5083759;27;43599;-64
2023/01/07 07:15:04;;;;;;;;;;;19.20;57.00;;;;;;5080068;28;44034;-64
2023/01/07 07:17:32;;;;;;;;;;;19.20;57.00;;;;;;5077235;27;43434;-63
2023/01/07 07:19:59;;;;;;;;;;;19.20;57.00;;;;;;5079914;27;43483;-63
2023/01/07 07:22:26;;;;;;;;;;;19.20;56.90;;;;;;5082591;28;43448;-63
2023/01/07 07:24:54;;;;;;;;;;;19.20;56.90;;;;;;5079018;27;44739;-64
2023/01/07 07:27:21;;;;;;;;;;;19.30;57.00;;;;;;5082720;28;43389;-64
2023/01/07 07:29:49;;;;;;;;;;;19.30;57.20;;;;;;5082480;28;43442;-63
2023/01/07 07:32:17;;;;;;;;;;;19.30;57.10;;;;;;5080987;28;43534;-63
2023/01/07 07:34:44;;;;;;;;;;;19.30;56.90;;;;;;5080198;28;43773;-63
2023/01/07 07:37:11;;;;;;;;;;;19.30;56.90;;;;;;5069599;28;43446;-63
2023/01/07 07:39:38;;;;;;;;;;;19.30;56.90;;;;;;5082130;28;43493;-63
2023/01/07 07:42:06;;;;;;;;;;;19.30;56.90;;;;;;5080711;27;43528;-63
2023/01/07 07:44:35;;;;;;;;;;;19.20;56.90;;;;;;5075458;28;43813;-63
2023/01/07 07:47:02;;;;;;;;;;;19.20;57.00;;;;;;5074408;28;43889;-63
2023/01/07 07:49:29;;;;;;;;;;;19.20;57.00;;;;;;5083147;28;43482;-63
2023/01/07 07:51:57;;;;;;;;;;;19.20;57.10;;;;;;5079784;28;43559;-61
2023/01/07 07:54:24;;;;;;;;;;;19.30;57.00;;;;;;5077575;28;44923;-64
2023/01/07 07:56:52;;;;;;;;;;;19.20;57.00;;;;;;5082985;28;43392;-63
2023/01/07 07:59:20;;;;;;;;;;;19.30;56.90;;;;;;5083811;27;43452;-63
2023/01/07 08:01:48;;;;;;;;;;;19.30;56.70;;;;;;5083978;27;43767;-63
2023/01/07 08:04:15;;;;;;;;;;;19.40;56.70;;;;;;5083119;27;44005;-63
2023/01/07 08:06:43;;;;;;;;;;;19.40;56.70;;;;;;5079886;28;43411;-63
2023/01/07 08:09:10;;;;;;;;;;;19.40;56.70;;;;;;5083275;28;43443;-65
2023/01/07 08:11:38;;;;;;;;;;;19.40;56.70;;;;;;5085479;27;43526;-69
2023/01/07 08:14:06;;;;;;;;;;;19.30;56.80;;;;;;5086987;27;43883;-67
2023/01/07 08:16:33;;;;;;;;;;;19.30;57.00;;;;;;5086584;27;43394;-65
2023/01/07 08:19:00;;;;;;;;;;;19.30;57.00;;;;;;5083515;27;43482;-65
2023/01/07 08:21:29;;;;;;;;;;;19.30;57.00;;;;;;5083808;27;43667;-65
2023/01/07 08:23:56;;;;;;;;;;;19.30;57.00;;;;;;5082794;27;43908;-65
2023/01/07 08:26:23;;;;;;;;;;;19.30;56.90;;;;;;5081062;27;43369;-64
2023/01/07 08:28:50;;;;;;;;;;;19.30;57.20;;;;;;5082419;28;43653;-67
2023/01/07 08:31:18;;;;;;;;;;;19.30;57.30;;;;;;5064782;28;43630;-67
2023/01/07 08:33:45;;;;;;;;;;;19.30;57.20;;;;;;5081320;28;43907;-67
2023/01/07 08:36:12;;;;;;;;;;;19.30;57.10;;;;;;5080331;27;43489;-60
2023/01/07 08:38:50;;;;;;;;;;;19.30;57.60;;;;;;5083232;27;43462;-65
2023/01/07 08:41:18;;;;;;;;;;;19.40;57.30;;;;;;5082381;27;43557;-65
2023/01/07 08:43:45;;;;;;;;;;;19.40;57.10;;;;;;5085779;27;44814;-64
2023/01/07 08:46:13;;;;;;;;;;;19.40;57.00;;;;;;5081828;28;43507;-64
2023/01/07 08:48:40;;;;;;;;;;;19.40;57.00;;;;;;5083758;27;43450;-65
2023/01/07 08:51:08;;;;;;;;;;;19.40;57.00;;;;;;5085884;27;43526;-65
2023/01/07 08:53:35;;;;;;;;;;;19.50;57.00;;;;;;5082312;27;44952;-65
2023/01/07 08:56:02;;;;;;;;;;;19.50;57.00;;;;;;5075713;28;43475;-65
2023/01/07 08:58:30;;;;;;;;;;;19.50;57.00;;;;;;5079507;28;43477;-64
2023/01/07 09:01:02;;;;;;;;;;;19.50;56.90;;;;;;5080370;27;43500;-64
2023/01/07 09:03:30;;;;;;;;;;;19.60;56.70;;;;;;5082104;27;44028;-64
2023/01/07 09:05:58;;;;;;;;;;;19.70;56.70;;;;;;5075512;28;43588;-64
2023/01/07 09:08:25;;;;;;;;;;;19.80;56.80;;;;;;5079264;28;43403;-64
2023/01/07 09:10:52;;;;;;;;;;;19.90;56.60;;;;;;5082323;27;43466;-63
2023/01/07 09:13:20;;;;;;;;;;;20.00;56.50;;;;;;5078399;28;44705;-64
2023/01/07 09:15:47;;;;;;;;;;;20.10;56.40;;;;;;5074379;28;43517;-63
2023/01/07 09:18:14;;;;;;;;;;;20.30;56.10;;;;;;5081709;28;43401;-64
2023/01/07 09:20:43;;;;;;;;;;;20.40;55.90;;;;;;5080869;28;43418;-65
2023/01/07 09:23:10;;;;;;;;;;;20.50;55.70;;;;;;5077604;28;44786;-64
2023/01/07 09:25:37;;;;;;;;;;;20.70;55.60;;;;;;5075123;28;43409;-64
2023/01/07 09:28:05;;;;;;;;;;;20.80;55.50;;;;;;5078694;28;43393;-65
2023/01/07 09:30:32;;;;;;;;;;;20.90;55.40;;;;;;5076892;28;43612;-64
2023/01/07 09:32:59;;;;;;;;;;;21.00;55.20;;;;;;5076858;28;44769;-64
2023/01/07 09:35:27;;;;;;;;;;;21.10;55.10;;;;;;5073856;28;43621;-72
2023/01/07 09:37:54;;;;;;;;;;;21.20;55.00;;;;;;5078780;28;43422;-66
2023/01/07 09:40:30;;;;;;;;;;;21.30;55.00;;;;;;5076956;28;43438;-70
2023/01/07 09:43:06;;;;;;;;;;;21.30;55.00;;;;;;5077686;28;43977;-69
2023/01/07 09:45:35;;;;;;;;;;;21.40;55.40;;;;;;5075819;28;43494;-69
2023/01/07 09:48:05;;;;;;;;;;;21.50;55.20;;;;;;5081272;27;43520;-69
2023/01/07 09:50:36;;;;;;;;;;;21.50;55.80;;;;;;5077290;28;43537;-72
2023/01/07 09:53:10;;;;;;;;;;;21.50;54.90;;;;;;5076956;27;44947;-67
2023/01/07 09:55:38;;;;;;;;;;;21.60;55.00;;;;;;5078191;28;43416;-70
2023/01/07 09:58:26;;;;;;;;;;;21.60;54.90;;;;;;5079492;27;43409;-68
2023/01/07 10:00:53;;;;;;;;;;;21.60;54.70;;;;;;5080743;27;43515;-69
2023/01/07 10:03:36;;;;;;;;;;;21.70;54.70;;;;;;5080081;27;43788;-71
2023/01/07 10:06:08;;;;;;;;;;;21.80;54.80;;;;;;5081390;27;43410;-68
2023/01/07 10:09:03;;;;;;;;;;;21.80;54.50;;;;;;5081453;28;43356;-68
2023/01/07 10:11:39;;;;;;;;;;;21.90;54.60;;;;;;5079851;27;43577;-67
2023/01/07 10:14:09;;;;;;;;;;;22.00;54.40;;;;;;5082202;27;44631;-67
2023/01/07 10:16:36;;;;;;;;;;;22.00;54.50;;;;;;5080654;27;43560;-66
2023/01/07 10:19:36;;;;;;;;;;;22.10;54.30;;;;;;5083265;27;43517;-66
2023/01/07 10:22:09;;;;;;;;;;;22.20;54.20;;;;;;5060856;28;43517;-66
2023/01/07 10:24:39;;;;;;;;;;;22.20;54.10;;;;;;5078971;28;43794;-67
2023/01/07 10:27:09;;;;;;;;;;;22.20;54.10;;;;;;5081460;27;43496;-66
2023/01/07 10:29:50;;;;;;;;;;;22.20;53.90;;;;;;5083084;27;43433;-65
2023/01/07 10:32:19;;;;;;;;;;;22.20;53.90;;;;;;5077570;28;43406;-65
2023/01/07 10:34:48;;;;;;;;;;;22.20;53.80;;;;;;5082808;28;43863;-65
2023/01/07 10:37:35;;;;;;;;;;;22.20;53.70;;;;;;5079634;28;43478;-66
2023/01/07 10:40:29;;;;;;;;;;;22.20;53.70;;;;;;5071642;28;43609;-65
2023/01/07 10:43:00;;;;;;;;;;;22.20;53.80;;;;;;5080179;27;43645;-66
2023/01/07 10:45:46;;;;;;;;;;;22.20;53.80;;;;;;5080613;28;43637;-65
2023/01/07 10:48:13;;;;;;;;;;;22.10;53.80;;;;;;5074963;28;44428;-65
2023/01/07 10:50:41;;;;;;;;;;;22.10;53.90;;;;;;5078555;28;43433;-66
2023/01/07 10:53:08;;;;;;;;;;;22.00;54.00;;;;;;5082327;28;43554;-66
2023/01/07 10:55:44;;;;;;;;;;;22.00;54.10;;;;;;5079481;28;43999;-66
2023/01/07 10:58:11;;;;;;;;;;;21.90;54.20;;;;;;5084474;28;43700;-66
2023/01/07 11:00:39;;;;;;;;;;;21.90;54.20;;;;;;5083804;28;43473;-65
2023/01/07 11:03:27;;;;;;;;;;;21.80;54.30;;;;;;5082301;28;43570;-65
2023/01/07 11:05:58;;;;;;;;;;;21.80;54.40;;;;;;5079275;28;43730;-65
2023/01/07 11:08:31;;;;;;;;;;;21.70;54.50;;;;;;5083756;27;43440;-66
2023/01/07 11:10:58;;;;;;;;;;;21.60;54.50;;;;;;5084605;27;43455;-68
2023/01/07 11:13:29;;;;;;;;;;;21.60;54.60;;;;;;5084746;27;43612;-68
2023/01/07 11:15:56;;;;;;;;;;;21.60;54.70;;;;;;5085542;27;44627;-68
2023/01/07 11:18:37;;;;;;;;;;;21.60;54.70;;;;;;5085017;27;43395;-68
2023/01/07 11:21:06;;;;;;;;;;;21.50;54.70;;;;;;5081534;28;43505;-68
2023/01/07 11:23:54;;;;;;;;;;;21.50;54.80;;;;;;5065255;28;43532;-68
2023/01/07 11:26:23;;;;;;;;;;;21.50;54.90;;;;;;5086876;27;44326;-67
2023/01/07 11:28:55;;;;;;;;;;;21.50;55.10;;;;;;5083985;28;43507;-67
2023/01/07 11:31:42;;;;;;;;;;;21.40;55.10;;;;;;5083815;27;43536;-67
2023/01/07 11:34:19;;;;;;;;;;;21.40;55.10;;;;;;5083560;28;43496;-67
2023/01/07 11:36:46;;;;;;;;;;;21.40;55.10;;;;;;5085214;27;44025;-66
2023/01/07 11:39:22;;;;;;;;;;;21.30;55.00;;;;;;5086372;27;43382;-66
2023/01/07 11:42:37;;;;;;;;;;;21.30;55.10;;;;;;5082424;28;43479;-66
2023/01/07 11:44:47;;;;;;;;;;;21.20;55.20;;;;;;5078171;27;43616;-67
2023/01/07 11:47:16;;;;;;;;;;;21.30;55.30;;;;;;5077514;28;43938;-67
2023/01/07 11:49:44;;;;;;;;;;;21.20;55.30;;;;;;5078141;28;43383;-66
2023/01/07 11:52:18;;;;;;;;;;;21.20;55.40;;;;;;5076539;28;43392;-67
2023/01/07 11:54:50;;;;;;;;;;;21.10;55.50;;;;;;5079420;28;43766;-66
2023/01/07 11:57:22;;;;;;;;;;;21.10;55.50;;;;;;5080550;28;43918;-66
2023/01/07 12:00:11;;;;;;;;;;;21.10;55.60;;;;;;5079533;28;43513;-66
2023/01/07 12:02:38;;;;;;;;;;;21.10;55.60;;;;;;5080124;28;43375;-65
2023/01/07 12:05:16;;;;;;;;;;;21.10;55.70;;;;;;5077857;28;43486;-64
2023/01/07 12:07:45;;;;;;;;;;;21.10;55.80;;;;;;5083210;28;44959;-65
2023/01/07 12:10:41;;;;;;;;;;;21.00;55.60;;;;;;5086536;27;43948;-67
2023/01/07 12:13:22;;;;;;;;;;;21.00;55.60;;;;;;5074289;28;43538;-65
2023/01/07 12:16:00;;;;;;;;;;;21.00;55.80;;;;;;5083415;27;43479;-66
2023/01/07 12:18:28;;;;;;;;;;;21.00;55.80;;;;;;5076571;28;43775;-66
2023/01/07 12:21:08;;;;;;;;;;;20.90;55.70;;;;;;5079804;28;44079;-65
2023/01/07 12:23:45;;;;;;;;;;;20.90;55.80;;;;;;5076216;28;43924;-67
2023/01/07 12:26:15;;;;;;;;;;;20.90;55.80;;;;;;5083746;27;43468;-66
2023/01/07 12:28:51;;;;;;;;;;;20.90;55.80;;;;;;5078697;28;43797;-66
2023/01/07 12:31:29;;;;;;;;;;;20.80;55.80;;;;;;5082294;27;43559;-66
2023/01/07 12:34:21;;;;;;;;;;;20.80;55.80;;;;;;5079240;27;43382;-67
2023/01/07 12:36:48;;;;;;;;;;;20.80;55.80;;;;;;5079099;28;43390;-67
2023/01/07 12:39:24;;;;;;;;;;;20.80;55.80;;;;;;5083199;27;43966;-66
2023/01/07 12:42:01;;;;;;;;;;;20.80;55.80;;;;;;5080925;27;43441;-66
2023/01/07 12:44:28;;;;;;;;;;;20.80;55.90;;;;;;5082506;27;43397;-67
2023/01/07 12:46:58;;;;;;;;;;;20.70;55.80;;;;;;5078868;28;43420;-67
2023/01/07 12:49:57;;;;;;;;;;;20.70;55.90;;;;;;5079133;28;44584;-64
2023/01/07 12:52:37;;;;;;;;;;;20.70;56.10;;;;;;5082398;27;43466;-65
2023/01/07 12:55:34;;;;;;;;;;;20.70;56.10;;;;;;5083468;27;43342;-65
2023/01/07 12:58:06;;;;;;;;;;;20.70;55.90;;;;;;5082723;27;43612;-65
2023/01/07 13:00:56;;;;;;;;;;;20.70;56.00;;;;;;5082499;27;45261;-65
2023/01/07 13:03:39;;;;;;;;;;;20.70;55.90;;;;;;5077234;28;43563;-65
2023/01/07 13:06:37;;;;;;;;;;;20.70;55.90;;;;;;5082623;27;43505;-66
2023/01/07 13:09:32;;;;;;;;;;;20.70;56.00;;;;;;5081409;27;43367;-65
2023/01/07 13:15:28;;;;;;;;;;;20.80;55.90;;;;;;5079755;28;43421;-65
2023/01/07 13:18:14;;;;;;;;;;;20.80;55.90;;;;;;5084019;27;43430;-65
2023/01/07 13:20:51;;;;;;;;;;;20.80;55.90;;;;;;5079082;28;43415;-65
2023/01/07 13:23:29;;;;;;;;;;;20.70;55.80;;;;;;5081578;28;44936;-65
2023/01/07 13:26:18;;;;;;;;;;;20.80;55.80;;;;;;5079983;27;43422;-65
2023/01/07 13:28:45;;;;;;;;;;;20.70;55.80;;;;;;5080572;27;43450;-66
2023/01/07 13:31:36;;;;;;;;;;;20.70;55.80;;;;;;5085654;27;43518;-65
2023/01/07 13:34:10;;;;;;;;;;;20.80;55.80;;;;;;5083190;27;43877;-66
2023/01/07 13:36:46;;;;;;;;;;;20.70;55.80;;;;;;5080117;28;43421;-66
2023/01/07 13:39:32;;;;;;;;;;;20.70;55.70;;;;;;5081805;27;43446;-66
2023/01/07 13:42:12;;;;;;;;;;;20.70;55.70;;;;;;5076551;27;43628;-67
2023/01/07 13:45:02;;;;;;;;;;;20.70;55.70;;;;;;5085911;27;44169;-66
2023/01/07 13:47:42;;;;;;;;;;;20.80;55.80;;;;;;5083185;27;43389;-66
2023/01/07 13:50:49;;;;;;;;;;;20.70;55.80;;;;;;5078006;27;43450;-66
2023/01/07 13:53:32;;;;;;;;;;;20.70;55.70;;;;;;5070650;27;43504;-65
2023/01/07 13:56:16;;;;;;;;;;;20.70;55.80;;;;;;5073078;28;44066;-65
2023/01/07 13:58:54;;;;;;;;;;;20.70;55.80;;;;;;5076432;28;43470;-66
2023/01/07 14:01:34;;;;;;;;;;;20.70;55.70;;;;;;5080515;27;43458;-65
2023/01/07 14:04:06;;;;;;;;;;;20.70;55.80;;;;;;5079445;28;43824;-65
2023/01/07 14:06:41;;;;;;;;;;;20.70;55.80;;;;;;5080538;28;43808;-65
2023/01/07 14:09:22;;;;;;;;;;;20.60;55.80;;;;;;5097239;27;43446;-64
2023/01/07 14:12:04;;;;;;;;;;;20.60;55.90;;;;;;5078809;27;43490;-63
2023/01/07 14:14:54;;;;;;;;;;;20.60;55.90;;;;;;5079025;28;43596;-63
2023/01/07 14:17:22;;;;;;;;;;;20.60;55.90;;;;;;5058748;27;44069;-63
2023/01/07 14:20:14;;;;;;;;;;;20.50;55.90;;;;;;5081081;27;62431;-63
2023/01/07 14:22:53;;;;;;;;;;;20.50;56.00;;;;;;5082369;27;43945;-63
2023/01/07 14:25:30;;;;;;;;;;;20.40;56.00;;;;;;5083471;27;43455;-63
2023/01/07 14:28:27;;;;;;;;;;;20.40;56.10;;;;;;5082440;27;45177;-63
2023/01/07 14:30:57;;;;;;;;;;;20.40;56.10;;;;;;5080936;28;43439;-63
2023/01/07 14:33:30;;;;;;;;;;;20.40;56.10;;;;;;5080336;27;43420;-63
2023/01/07 14:36:07;;;;;;;;;;;20.40;56.10;;;;;;5080495;28;43484;-63
2023/01/07 14:38:34;;;;;;;;;;;20.30;56.10;;;;;;5078355;27;43790;-64
2023/01/07 14:41:02;;;;;;;;;;;20.30;56.10;;;;;;5080472;27;43413;-65
2023/01/07 14:46:09;;;;;;;;;;;20.30;56.10;;;;;;5080842;28;43467;-65
2023/01/07 14:48:36;;;;;;;;;;;20.30;56.20;;;;;;5082772;27;44978;-64